createdAt,value
2019-02-20T00:00:14.106Z,97866.50
2019-02-20T00:03:22.277Z,97869.31
2019-02-20T00:06:29.150Z,97862.45
2019-02-20T00:09:35.812Z,97859.92
2019-02-20T00:12:43.115Z,97859.98
2019-02-20T00:15:50.235Z,97862.92
2019-02-20T00:18:57.583Z,97871.38
2019-02-20T00:22:03.979Z,97869.61
2019-02-20T00:25:11.360Z,97867.34
2019-02-20T00:28:17.840Z,97867.34
2019-02-20T00:31:25.772Z,97871.30
2019-02-20T00:34:32.570Z,97875.73
2019-02-20T00:37:38.998Z,97873.52
2019-02-20T00:40:45.605Z,97879.31
2019-02-20T00:44:06.855Z,97886.36
2019-02-20T00:47:44.412Z,97880.77
2019-02-20T00:50:54.532Z,97885.69
2019-02-20T00:54:03.191Z,97887.68
2019-02-20T00:57:10.740Z,97883.92
2019-02-20T01:00:17.493Z,97879.70
2019-02-20T01:03:24.191Z,97875.57
2019-02-20T01:06:30.818Z,97872.68
2019-02-20T01:09:37.525Z,97875.88
2019-02-20T01:12:44.520Z,97879.42
2019-02-20T01:15:51.253Z,97884.46
2019-02-20T01:18:57.684Z,97886.79
2019-02-20T01:22:04.237Z,97882.97
2019-02-20T01:25:10.724Z,97888.18
2019-02-20T01:28:17.163Z,97886.96
2019-02-20T01:31:23.724Z,97884.52
2019-02-20T01:34:30.048Z,97876.35
2019-02-20T01:37:36.555Z,97883.06
2019-02-20T01:40:43.000Z,97873.47
2019-02-20T01:43:49.331Z,97879.36
2019-02-20T01:46:55.941Z,97874.91
2019-02-20T01:50:02.642Z,97864.89
2019-02-20T01:53:10.614Z,97861.47
2019-02-20T01:56:17.407Z,97863.59
2019-02-20T01:59:23.744Z,97871.91
2019-02-20T02:02:30.603Z,97871.46
2019-02-20T02:05:37.074Z,97881.08
2019-02-20T02:08:43.247Z,97872.17
2019-02-20T02:11:49.782Z,97869.26
2019-02-20T02:14:56.282Z,97870.92
2019-02-20T02:18:02.946Z,97876.58
2019-02-20T02:21:09.403Z,97875.56
2019-02-20T02:24:16.040Z,97871.44
2019-02-20T02:27:22.696Z,97872.43
2019-02-20T02:30:29.767Z,97874.97
2019-02-20T02:33:36.437Z,97868.98
2019-02-20T02:36:44.088Z,97869.75
2019-02-20T02:39:51.154Z,97872.34
2019-02-20T02:42:57.800Z,97869.61
2019-02-20T02:46:04.126Z,97869.81
2019-02-20T02:49:10.872Z,97865.77
2019-02-20T02:52:17.235Z,97875.46
2019-02-20T02:55:23.703Z,97874.19
2019-02-20T02:58:30.258Z,97869.07
2019-02-20T03:01:37.489Z,97867.21
2019-02-20T03:04:44.125Z,97866.36
2019-02-20T03:07:50.565Z,97861.56
2019-02-20T03:10:57.029Z,97861.02
2019-02-20T03:14:04.520Z,97863.59
2019-02-20T03:17:11.361Z,97870.01
2019-02-20T03:20:19.908Z,97864.49
2019-02-20T03:23:26.709Z,97873.53
2019-02-20T03:26:36.784Z,97875.82
2019-02-20T03:29:43.255Z,97877.03
2019-02-20T03:32:50.073Z,97872.29
2019-02-20T03:35:56.609Z,97872.96
2019-02-20T03:39:03.497Z,97860.66
2019-02-20T03:42:11.568Z,97860.72
2019-02-20T03:45:17.894Z,97862.75
2019-02-20T03:48:24.291Z,97876.52
2019-02-20T03:51:30.919Z,97878.20
2019-02-20T03:54:37.495Z,97880.52
2019-02-20T03:57:44.064Z,97887.09
2019-02-20T04:00:50.677Z,97887.09
2019-02-20T04:03:57.652Z,97887.76
2019-02-20T04:07:03.861Z,97892.23
2019-02-20T04:10:10.651Z,97884.40
2019-02-20T04:13:17.220Z,97893.44
2019-02-20T04:16:23.716Z,97881.56
2019-02-20T04:19:30.277Z,97882.41
2019-02-20T04:22:37.170Z,97893.23
2019-02-20T04:25:43.836Z,97887.06
2019-02-20T04:28:50.593Z,97886.89
2019-02-20T04:31:56.957Z,97891.61
2019-02-20T04:35:03.198Z,97896.54
2019-02-20T04:38:09.649Z,97893.75
2019-02-20T04:41:16.315Z,97899.62
2019-02-20T04:44:22.937Z,97899.47
2019-02-20T04:47:29.338Z,97898.68
2019-02-20T04:50:37.149Z,97893.90
2019-02-20T04:53:44.227Z,97891.47
2019-02-20T04:56:50.664Z,97886.42
2019-02-20T04:59:57.213Z,97886.53
2019-02-20T05:03:03.695Z,97888.41
2019-02-20T05:06:10.525Z,97895.13
2019-02-20T05:09:17.438Z,97893.89
2019-02-20T05:12:25.089Z,97897.05
2019-02-20T05:15:31.801Z,97889.14
2019-02-20T05:18:38.367Z,97885.84
2019-02-20T05:21:45.671Z,97886.03
2019-02-20T05:24:52.279Z,97889.98
2019-02-20T05:27:59.092Z,97888.59
2019-02-20T05:31:05.808Z,97890.42
2019-02-20T05:34:12.546Z,97890.03
2019-02-20T05:37:19.049Z,97889.33
2019-02-20T05:40:25.537Z,97891.19
2019-02-20T05:43:32.330Z,97890.47
2019-02-20T05:46:39.095Z,97889.22
2019-02-20T05:49:46.007Z,97888.19
2019-02-20T05:52:52.458Z,97890.13
2019-02-20T05:55:58.895Z,97898.30
2019-02-20T05:59:05.305Z,97895.12
2019-02-20T06:02:12.106Z,97897.53
2019-02-20T06:05:18.594Z,97901.52
2019-02-20T06:08:28.133Z,97906.02
2019-02-20T06:11:35.502Z,97906.24
2019-02-20T06:14:41.904Z,97912.96
2019-02-20T06:17:48.394Z,97921.52
2019-02-20T06:20:56.289Z,97919.18
2019-02-20T06:24:03.323Z,97918.80
2019-02-20T06:27:10.347Z,97923.40
2019-02-20T06:30:17.286Z,97934.38
2019-02-20T06:33:24.184Z,97936.37
2019-02-20T06:36:30.484Z,97942.06
2019-02-20T06:39:37.362Z,97946.38
2019-02-20T06:42:43.836Z,97936.74
2019-02-20T06:45:50.318Z,97945.06
2019-02-20T06:48:57.161Z,97950.67
2019-02-20T06:52:03.871Z,97958.89
2019-02-20T06:55:10.861Z,97951.47
2019-02-20T06:58:18.387Z,97956.12
2019-02-20T07:01:25.001Z,97959.06
2019-02-20T07:04:32.647Z,97964.17
2019-02-20T07:08:07.959Z,97968.74
2019-02-20T07:11:45.822Z,97969.89
2019-02-20T07:15:42.159Z,97973.45
2019-02-20T07:19:03.190Z,97975.99
2019-02-20T07:22:51.517Z,97982.02
2019-02-20T07:26:33.047Z,97983.71
2019-02-20T07:30:05.769Z,97989.08
2019-02-20T07:33:12.381Z,97992.36
2019-02-20T07:36:18.944Z,97996.67
2019-02-20T07:39:25.407Z,98010.11
2019-02-20T07:42:32.265Z,98009.65
2019-02-20T07:45:39.417Z,98014.22
2019-02-20T07:48:46.142Z,98013.30
2019-02-20T07:51:52.899Z,98013.61
2019-02-20T07:54:59.799Z,98018.83
2019-02-20T07:58:06.708Z,98019.70
2019-02-20T08:01:13.653Z,98025.95
2019-02-20T08:04:22.038Z,98018.89
2019-02-20T08:07:28.617Z,98022.13
2019-02-20T08:10:35.667Z,98028.63
2019-02-20T08:13:42.445Z,98035.25
2019-02-20T08:16:52.301Z,98034.58
2019-02-20T08:19:58.052Z,98041.25
2019-02-20T08:23:04.628Z,98039.02
2019-02-20T08:26:11.147Z,98040.81
2019-02-20T08:29:18.820Z,98042.73
2019-02-20T08:32:26.060Z,98047.20
2019-02-20T08:35:33.182Z,98047.91
2019-02-20T08:38:39.897Z,98050.63
2019-02-20T08:41:47.130Z,98057.09
2019-02-20T08:44:55.211Z,98048.34
2019-02-20T08:48:01.594Z,98057.42
2019-02-20T08:51:08.505Z,98066.42
2019-02-20T08:54:14.729Z,98063.22
2019-02-20T08:57:21.058Z,98064.16
2019-02-20T09:00:28.267Z,98067.66
2019-02-20T09:03:35.151Z,98075.05
2019-02-20T09:06:41.869Z,98071.41
2019-02-20T09:09:48.926Z,98072.71
2019-02-20T09:12:55.771Z,98072.87
2019-02-20T09:16:02.316Z,98068.53
2019-02-20T09:19:08.883Z,98066.33
2019-02-20T09:22:15.651Z,98063.03
2019-02-20T09:25:22.341Z,98071.43
2019-02-20T09:28:29.047Z,98072.30
2019-02-20T09:31:37.051Z,98076.43
2019-02-20T09:34:43.948Z,98077.23
2019-02-20T09:37:51.076Z,98080.16
2019-02-20T09:40:57.875Z,98077.05
2019-02-20T09:44:04.724Z,98085.42
2019-02-20T09:47:11.236Z,98089.63
2019-02-20T09:50:18.215Z,98091.38
2019-02-20T09:53:24.918Z,98094.16
2019-02-20T09:56:31.331Z,98104.33
2019-02-20T09:59:37.825Z,98107.06
2019-02-20T10:02:44.152Z,98113.05
2019-02-20T10:05:50.960Z,98107.67
2019-02-20T10:08:58.505Z,98106.34
2019-02-20T10:12:05.815Z,98107.25
2019-02-20T10:15:13.125Z,98100.09
2019-02-20T10:18:19.786Z,98106.16
2019-02-20T10:21:27.053Z,98108.59
2019-02-20T10:24:34.272Z,98106.56
2019-02-20T10:27:40.851Z,98111.37
2019-02-20T10:30:49.016Z,98110.47
2019-02-20T10:33:55.409Z,98111.13
2019-02-20T10:37:02.267Z,98116.33
2019-02-20T10:40:08.648Z,98122.33
2019-02-20T10:43:15.385Z,98120.39
2019-02-20T10:46:22.055Z,98119.06
2019-02-20T10:49:29.085Z,98113.41
2019-02-20T10:52:37.322Z,98117.73
2019-02-20T10:55:43.718Z,98115.49
2019-02-20T10:58:50.401Z,98120.19
2019-02-20T11:01:58.219Z,98123.86
2019-02-20T11:05:04.976Z,98124.99
2019-02-20T11:08:11.391Z,98122.84
2019-02-20T11:11:18.427Z,98118.13
2019-02-20T11:14:25.087Z,98117.36
2019-02-20T11:17:31.697Z,98114.72
2019-02-20T11:20:38.378Z,98115.36
2019-02-20T11:23:45.049Z,98118.95
2019-02-20T11:26:54.944Z,98108.87
2019-02-20T11:29:59.873Z,98108.77
2019-02-20T11:33:06.837Z,98097.69
2019-02-20T11:36:13.497Z,98101.50
2019-02-20T11:39:20.147Z,98105.38
2019-02-20T11:42:26.525Z,98096.65
2019-02-20T11:45:33.166Z,98098.47
2019-02-20T11:48:40.066Z,98092.45
2019-02-20T11:51:47.625Z,98089.81
2019-02-20T11:54:54.796Z,98090.68
2019-02-20T11:58:01.564Z,98082.91
2019-02-20T12:01:08.225Z,98090.19
2019-02-20T12:04:14.851Z,98090.20
2019-02-20T12:07:21.618Z,98089.88
2019-02-20T12:10:28.297Z,98099.70
2019-02-20T12:13:35.205Z,98097.27
2019-02-20T12:16:41.990Z,98093.46
2019-02-20T12:19:48.325Z,98097.55
2019-02-20T12:22:55.623Z,98094.98
2019-02-20T12:26:02.604Z,98091.31
2019-02-20T12:29:11.153Z,98094.03
2019-02-20T12:32:17.209Z,98095.09
2019-02-20T12:35:24.219Z,98093.95
2019-02-20T12:38:30.673Z,98093.95
2019-02-20T12:41:40.254Z,98087.52
2019-02-20T12:44:48.447Z,98098.53
2019-02-20T12:47:54.763Z,98099.29
2019-02-20T12:51:01.493Z,98092.72
2019-02-20T12:54:08.587Z,98095.20
2019-02-20T12:57:15.254Z,98095.66
2019-02-20T13:00:24.167Z,98087.68
2019-02-20T13:03:31.249Z,98092.14
2019-02-20T13:06:38.064Z,98085.48
2019-02-20T13:09:44.373Z,98086.41
2019-02-20T13:12:52.953Z,98084.89
2019-02-20T13:15:59.734Z,98084.84
2019-02-20T13:19:06.984Z,98089.96
2019-02-20T13:22:13.346Z,98088.84
2019-02-20T13:25:21.023Z,98077.54
2019-02-20T13:28:27.982Z,98082.63
2019-02-20T13:31:38.962Z,98079.45
2019-02-20T13:34:45.466Z,98082.59
2019-02-20T13:37:51.831Z,98077.38
2019-02-20T13:40:59.660Z,98076.62
2019-02-20T13:44:07.074Z,98085.48
2019-02-20T13:47:14.206Z,98086.44
2019-02-20T13:50:21.036Z,98074.66
2019-02-20T13:53:27.493Z,98084.34
2019-02-20T13:56:34.845Z,98082.09
2019-02-20T13:59:41.488Z,98078.80
2019-02-20T14:02:48.455Z,98079.25
2019-02-20T14:05:55.441Z,98078.13
2019-02-20T14:09:02.724Z,98073.42
2019-02-20T14:12:11.375Z,98070.02
2019-02-20T14:15:18.110Z,98077.70
2019-02-20T14:18:26.432Z,98076.05
2019-02-20T14:21:33.543Z,98073.27
2019-02-20T14:24:39.886Z,98077.77
2019-02-20T14:27:46.810Z,98077.58
2019-02-20T14:30:53.795Z,98074.30
2019-02-20T14:34:00.470Z,98077.63
2019-02-20T14:37:08.006Z,98077.33
2019-02-20T14:40:15.495Z,98087.03
2019-02-20T14:43:22.709Z,98083.94
2019-02-20T14:46:29.390Z,98079.50
2019-02-20T14:49:36.237Z,98077.63
2019-02-20T14:52:43.436Z,98078.47
2019-02-20T14:55:50.476Z,98073.56
2019-02-20T14:58:57.644Z,98074.70
2019-02-20T15:02:04.310Z,98072.34
2019-02-20T15:05:12.086Z,98077.61
2019-02-20T15:08:19.334Z,98073.55
2019-02-20T15:11:27.434Z,98073.66
2019-02-20T15:14:34.717Z,98071.58
2019-02-20T15:17:42.308Z,98067.63
2019-02-20T15:20:48.896Z,98063.45
2019-02-20T15:23:55.705Z,98071.39
2019-02-20T15:27:02.468Z,98074.47
2019-02-20T15:30:12.598Z,98071.09
2019-02-20T15:33:19.350Z,98074.95
2019-02-20T15:36:26.591Z,98064.52
2019-02-20T15:39:33.496Z,98075.34
2019-02-20T15:42:42.089Z,98078.17
2019-02-20T15:45:49.548Z,98083.52
2019-02-20T15:48:56.400Z,98085.20
2019-02-20T15:52:03.859Z,98086.61
2019-02-20T15:55:11.390Z,98081.89
2019-02-20T15:58:18.005Z,98081.59
2019-02-20T16:01:25.044Z,98084.88
2019-02-20T16:04:32.461Z,98082.43
2019-02-20T16:07:39.331Z,98081.77
2019-02-20T16:10:46.231Z,98088.36
2019-02-20T16:13:54.048Z,98091.34
2019-02-20T16:17:00.936Z,98088.09
2019-02-20T16:20:10.261Z,98089.41
2019-02-20T16:23:16.892Z,98093.45
2019-02-20T16:26:23.551Z,98090.02
2019-02-20T16:29:30.146Z,98101.89
2019-02-20T16:32:37.513Z,98096.25
2019-02-20T16:35:44.039Z,98098.25
2019-02-20T16:38:50.654Z,98102.23
2019-02-20T16:41:57.146Z,98096.09
2019-02-20T16:45:04.025Z,98100.38
2019-02-20T16:48:10.623Z,98103.87
2019-02-20T16:51:17.105Z,98100.56
2019-02-20T16:54:27.428Z,98111.21
2019-02-20T16:57:34.239Z,98109.52
2019-02-20T17:00:41.160Z,98111.84
2019-02-20T17:03:48.143Z,98115.11
2019-02-20T17:06:57.490Z,98125.55
2019-02-20T17:10:04.199Z,98123.23
2019-02-20T17:13:11.477Z,98138.70
2019-02-20T17:16:18.069Z,98144.34
2019-02-20T17:19:26.440Z,98144.91
2019-02-20T17:22:32.739Z,98146.38
2019-02-20T17:25:39.844Z,98152.11
2019-02-20T17:28:46.895Z,98162.99
2019-02-20T17:31:54.420Z,98159.99
2019-02-20T17:35:02.861Z,98163.30
2019-02-20T17:38:09.611Z,98163.23
2019-02-20T17:41:17.245Z,98166.57
2019-02-20T17:44:24.434Z,98177.16
2019-02-20T17:47:31.072Z,98180.72
2019-02-20T17:50:38.103Z,98180.70
2019-02-20T17:53:45.100Z,98183.13
2019-02-20T17:56:51.961Z,98185.61
2019-02-20T17:59:58.932Z,98189.75
2019-02-20T18:03:06.000Z,98186.52
2019-02-20T18:06:12.769Z,98176.16
2019-02-20T18:09:19.623Z,98176.74
2019-02-20T18:12:30.255Z,98185.89
2019-02-20T18:15:37.117Z,98185.94
2019-02-20T18:18:43.948Z,98186.02
2019-02-20T18:21:51.448Z,98179.55
2019-02-20T18:24:58.345Z,98186.20
2019-02-20T18:28:06.427Z,98184.27
2019-02-20T18:31:13.527Z,98189.22
2019-02-20T18:34:20.571Z,98185.48
2019-02-20T18:37:28.120Z,98187.91
2019-02-20T18:40:34.920Z,98189.44
2019-02-20T18:43:42.436Z,98191.02
2019-02-20T18:46:49.865Z,98196.39
2019-02-20T18:49:56.264Z,98198.75
2019-02-20T18:53:03.082Z,98198.09
2019-02-20T18:56:10.435Z,98196.91
2019-02-20T18:59:17.044Z,98206.28
2019-02-20T19:02:23.713Z,98209.67
2019-02-20T19:05:33.633Z,98216.64
2019-02-20T19:08:48.612Z,98215.95
2019-02-20T19:12:06.026Z,98224.57
2019-02-20T19:15:28.727Z,98232.85
2019-02-20T19:19:15.190Z,98235.20
2019-02-20T19:22:54.013Z,98234.34
2019-02-20T19:26:25.439Z,98236.47
2019-02-20T19:30:00.355Z,98232.61
2019-02-20T19:33:59.540Z,98230.68
2019-02-20T19:37:39.710Z,98235.44
2019-02-20T19:41:21.682Z,98237.66
2019-02-20T19:45:25.298Z,98237.87
2019-02-20T19:49:04.230Z,98237.91
2019-02-20T19:52:33.881Z,98240.16
2019-02-20T19:56:04.575Z,98240.19
2019-02-20T19:59:38.294Z,98243.70
2019-02-20T20:03:21.970Z,98238.95
2019-02-20T20:07:16.374Z,98241.21
2019-02-20T20:10:41.392Z,98246.06
2019-02-20T20:14:36.470Z,98249.48
2019-02-20T20:18:30.895Z,98250.97
2019-02-20T20:22:21.351Z,98251.44
2019-02-20T20:25:53.391Z,98255.50
2019-02-20T20:29:35.462Z,98254.10
2019-02-20T20:33:12.127Z,98252.59
2019-02-20T20:36:52.550Z,98262.83
2019-02-20T20:40:27.504Z,98257.81
2019-02-20T20:44:14.055Z,98249.66
2019-02-20T20:47:43.818Z,98253.45
2019-02-20T20:51:27.441Z,98252.54
2019-02-20T20:55:20.138Z,98262.30
2019-02-20T20:58:54.411Z,98262.22
2019-02-20T21:02:12.157Z,98266.52
2019-02-20T21:06:02.429Z,98264.36
2019-02-20T21:09:32.738Z,98264.83
2019-02-20T21:13:38.817Z,98265.96
2019-02-20T21:17:53.782Z,98265.09
2019-02-20T21:21:10.058Z,98262.01
2019-02-20T21:24:55.924Z,98258.58
2019-02-20T21:28:36.724Z,98267.21
2019-02-20T21:32:08.358Z,98254.73
2019-02-20T21:35:39.253Z,98258.25
2019-02-20T21:39:25.861Z,98261.45
2019-02-20T21:43:06.792Z,98251.24
2019-02-20T21:46:46.954Z,98258.13
2019-02-20T21:50:15.301Z,98261.16
2019-02-20T21:53:59.259Z,98252.32
2019-02-20T21:57:23.472Z,98249.59
2019-02-20T22:00:39.487Z,98249.02
2019-02-20T22:04:11.201Z,98251.77
2019-02-20T22:07:40.512Z,98245.31
2019-02-20T22:11:32.915Z,98246.04
2019-02-20T22:15:31.967Z,98250.69
2019-02-20T22:19:05.068Z,98250.41
2019-02-20T22:22:31.395Z,98257.76
2019-02-20T22:26:08.574Z,98253.03
2019-02-20T22:29:53.054Z,98253.83
2019-02-20T22:33:29.110Z,98251.42
2019-02-20T22:37:22.982Z,98261.37
2019-02-20T22:41:16.244Z,98256.35
2019-02-20T22:45:20.323Z,98248.63
2019-02-20T22:48:57.282Z,98246.63
2019-02-20T22:52:23.883Z,98256.73
2019-02-20T22:56:16.160Z,98250.70
2019-02-20T23:00:01.444Z,98245.56
2019-02-20T23:03:36.753Z,98261.35
2019-02-20T23:07:14.413Z,98264.35
2019-02-20T23:11:04.568Z,98267.83
2019-02-20T23:14:37.614Z,98266.55
2019-02-20T23:17:44.588Z,98268.41
2019-02-20T23:20:51.423Z,98267.38
2019-02-20T23:23:58.501Z,98273.05
2019-02-20T23:27:05.521Z,98279.14
2019-02-20T23:30:13.334Z,98281.34
2019-02-20T23:33:20.235Z,98289.53
2019-02-20T23:36:27.183Z,98295.45
2019-02-20T23:39:34.132Z,98290.20
2019-02-20T23:42:41.583Z,98292.39
2019-02-20T23:45:47.871Z,98294.88
2019-02-20T23:48:54.699Z,98293.06
2019-02-20T23:52:00.975Z,98295.14
2019-02-20T23:55:07.981Z,98293.78
2019-02-20T23:58:14.594Z,98296.84
